Time;durP1;ratioP1;P1;durP2;ratioP2;P2;SDS_P1;SDS_P2;PMS_P1;PMS_P2;Temp;Humidity;BMP_temperature;BMP_pressure;BME280_temperature;BME280_humidity;BME280_pressure;Samples;Min_cycle;Max_cycle;Signal;HPM_P1;HPM_P2
2021/06/25 00:00:35;;;;;;;0.80;0.70;;;15.40;99.90;;;16.04;100.00;1120.66;5022948;28;20448;-74
2021/06/25 00:03:05;;;;;;;0.70;0.70;;;15.40;99.90;;;15.90;100.00;3968.91;4992263;28;20419;-74
2021/06/25 00:05:32;;;;;;;0.80;0.70;;;15.30;99.90;;;15.82;100.00;6714.81;4989458;28;20504;-74
2021/06/25 00:08:00;;;;;;;0.70;0.60;;;15.20;99.90;;;15.69;100.00;9153.00;4991460;28;20469;-74
2021/06/25 00:10:28;;;;;;;0.70;0.60;;;15.20;99.90;;;15.54;100.00;11354.34;4990172;28;20437;-74
2021/06/25 00:12:58;;;;;;;0.80;0.73;;;15.10;99.90;;;15.46;100.00;13759.53;4991091;28;20954;-74
2021/06/25 00:15:26;;;;;;;0.80;0.70;;;15.00;99.90;;;15.44;100.00;16509.94;4991670;28;20966;-74
2021/06/25 00:17:57;;;;;;;0.70;0.60;;;14.90;99.90;;;15.35;100.00;17543.41;4989871;28;20485;-74
2021/06/25 00:20:26;;;;;;;0.70;0.60;;;14.80;99.90;;;15.27;100.00;19098.50;4990729;28;21009;-74
2021/06/25 00:22:56;;;;;;;0.77;0.70;;;14.70;99.90;;;15.20;100.00;20107.38;4974401;28;20819;-74
2021/06/25 00:25:24;;;;;;;0.70;0.70;;;14.60;99.90;;;15.11;100.00;20568.72;4991194;28;20436;-74
2021/06/25 00:27:51;;;;;;;0.80;0.70;;;14.50;99.90;;;15.07;100.00;20184.13;4991529;28;20528;-73
2021/06/25 00:30:20;;;;;;;0.70;0.70;;;14.50;99.90;;;15.00;100.00;19767.41;4990476;28;20444;-74
2021/06/25 00:32:48;;;;;;;0.77;0.70;;;14.40;99.90;;;14.93;100.00;19346.13;4991429;28;20456;-74
2021/06/25 00:35:16;;;;;;;0.80;0.70;;;14.30;99.90;;;14.85;100.00;18929.69;4989276;28;20855;-74
2021/06/25 00:37:45;;;;;;;0.80;0.70;;;14.20;99.90;;;14.86;100.00;18603.19;5023240;28;20921;-74
2021/06/25 00:40:14;;;;;;;0.80;0.80;;;14.20;99.90;;;14.73;100.00;17935.31;4990561;28;21044;-74
2021/06/25 00:42:42;;;;;;;0.80;0.70;;;14.10;99.90;;;14.70;100.00;16842.34;4989374;28;20430;-74
2021/06/25 00:45:12;;;;;;;1.73;0.93;;;14.00;99.90;;;14.64;100.00;15371.81;4994230;28;20445;-74
2021/06/25 00:47:42;;;;;;;0.70;0.60;;;14.00;99.90;;;14.59;100.00;13688.53;4994411;28;20799;-74
2021/06/25 00:50:13;;;;;;;0.80;0.80;;;13.90;99.90;;;14.53;100.00;11267.94;4995581;28;20441;-74
2021/06/25 00:52:42;;;;;;;0.73;0.70;;;13.90;99.90;;;14.40;100.00;9145.81;4994115;28;20450;-74
2021/06/25 00:55:12;;;;;;;0.70;0.70;;;13.80;99.90;;;14.35;100.00;6661.25;4992380;28;20443;-74
2021/06/25 00:57:41;;;;;;;0.80;0.70;;;13.80;99.90;;;14.32;100.00;4925.78;4994517;28;20436;-74
2021/06/25 01:00:29;;;;;;;0.80;0.80;;;13.80;99.90;;;14.29;100.00;2980.69;4994064;28;20801;-74
2021/06/25 01:02:57;;;;;;;0.80;0.70;;;13.70;99.90;;;14.23;100.00;790.78;4976613;28;20994;-73
2021/06/25 01:05:25;;;;;;;0.70;0.70;;;13.60;99.90;;;14.15;100.00;-1460.72;4995017;28;20426;-74
2021/06/25 01:07:52;;;;;;;0.70;0.60;;;13.50;99.90;;;14.12;100.00;-3740.41;4993724;28;20532;-74
2021/06/25 01:10:22;;;;;;;0.90;0.90;;;13.50;99.90;;;14.05;100.00;-6357.19;4995245;28;20444;-74
2021/06/25 01:12:51;;;;;;;0.70;0.60;;;13.40;99.90;;;14.03;100.00;-8638.03;4991310;28;20447;-73
2021/06/25 01:15:19;;;;;;;0.80;0.70;;;13.40;99.90;;;14.01;100.00;-10689.81;4994971;28;20535;-74
2021/06/25 01:17:47;;;;;;;0.80;0.70;;;13.40;99.90;;;13.95;100.00;-12825.41;4990767;28;20438;-73
2021/06/25 01:20:22;;;;;;;0.80;0.70;;;13.40;99.90;;;13.92;100.00;-14783.16;5012454;28;20521;-74
2021/06/25 01:22:52;;;;;;;0.73;0.67;;;13.30;99.90;;;13.86;100.00;-16471.66;4992029;28;20550;-74
2021/06/25 01:25:23;;;;;;;0.70;0.70;;;13.30;99.90;;;13.77;100.00;-18097.81;4992029;28;20503;-74
2021/06/25 01:27:54;;;;;;;0.70;0.70;;;13.20;99.90;;;13.70;100.00;-19433.63;4994853;28;20509;-74
2021/06/25 01:30:26;;;;;;;0.77;0.70;;;13.10;99.90;;;13.75;100.00;-20293.50;4992653;28;20954;-74
2021/06/25 01:32:59;;;;;;;0.70;0.70;;;13.10;99.90;;;13.72;100.00;-20967.50;4992618;28;20406;-74
2021/06/25 01:35:28;;;;;;;0.80;0.80;;;13.00;99.90;;;13.71;100.00;-21054.53;4993505;28;20442;-73
2021/06/25 01:37:57;;;;;;;0.77;0.70;;;13.00;99.90;;;13.67;100.00;-21053.44;4995191;28;20454;-73
2021/06/25 01:40:25;;;;;;;0.80;0.70;;;13.00;99.90;;;13.66;100.00;-21053.31;4992510;28;20509;-74
2021/06/25 01:42:54;;;;;;;0.80;0.80;;;13.00;99.90;;;13.65;100.00;-21052.88;4992982;28;20432;-74
2021/06/25 01:45:23;;;;;;;0.80;0.70;;;12.90;99.90;;;13.57;100.00;-21050.69;4992212;28;20946;-74
2021/06/25 01:47:52;;;;;;;0.70;0.60;;;13.00;99.90;;;13.56;100.00;-21050.53;4993034;28;20474;-74
2021/06/25 01:50:28;;;;;;;0.80;0.80;;;12.90;99.90;;;13.53;100.00;-21049.84;5010380;28;20442;-74
2021/06/25 01:53:01;;;;;;;0.80;0.73;;;12.90;99.90;;;13.58;100.00;-21051.09;4992434;28;20473;-74
2021/06/25 01:55:42;;;;;;;0.90;0.90;;;12.90;99.90;;;13.55;100.00;-21050.28;4993086;28;20438;-74
2021/06/25 01:58:46;;;;;;;0.70;0.70;;;12.90;99.90;;;13.54;100.00;-21050.13;4993983;28;20519;-73
2021/06/25 02:01:17;;;;;;;0.70;0.67;;;12.90;99.90;;;13.59;100.00;-21051.22;4993343;28;20957;-74
2021/06/25 02:03:50;;;;;;;0.70;0.60;;;12.90;99.90;;;13.52;100.00;-21049.56;4990070;28;20429;-73
2021/06/25 02:06:18;;;;;;;0.70;0.67;;;12.80;99.90;;;13.56;100.00;-21050.41;4993659;28;20472;-74
2021/06/25 02:08:48;;;;;;;0.80;0.70;;;12.80;99.90;;;13.52;100.00;-21049.56;4976923;28;20454;-74
2021/06/25 02:11:17;;;;;;;0.80;0.80;;;12.80;99.90;;;13.50;100.00;-21049.03;4992371;28;20452;-74
2021/06/25 02:13:45;;;;;;;0.80;0.70;;;12.80;99.90;;;13.50;100.00;-21048.88;5008312;28;20450;-74
2021/06/25 02:16:12;;;;;;;0.80;0.70;;;12.80;99.90;;;13.57;100.00;-21050.81;4991750;28;20462;-74
2021/06/25 02:18:40;;;;;;;0.80;0.73;;;12.80;99.90;;;13.51;100.00;-21049.16;4992657;28;20975;-74
2021/06/25 02:21:08;;;;;;;0.80;0.70;;;12.80;99.90;;;13.62;100.00;-21052.19;4992821;28;20469;-74
2021/06/25 02:23:36;;;;;;;0.70;0.70;;;12.80;99.90;;;13.63;100.00;-21052.34;4992383;28;20469;-74
2021/06/25 02:26:05;;;;;;;0.80;0.80;;;12.90;99.90;;;13.63;100.00;-21052.34;4992740;28;20789;-74
2021/06/25 02:28:33;;;;;;;0.70;0.70;;;12.90;99.90;;;13.64;100.00;-21052.75;4994051;28;20413;-74
2021/06/25 02:31:00;;;;;;;0.70;0.70;;;12.90;99.90;;;13.68;100.00;-21053.84;4993769;28;20500;-74
2021/06/25 02:33:28;;;;;;;0.80;0.70;;;12.90;99.90;;;13.65;100.00;-21053.03;4992368;28;20464;-74
2021/06/25 02:35:56;;;;;;;0.70;0.70;;;12.90;99.90;;;13.62;100.00;-21052.19;4992280;28;20556;-74
2021/06/25 02:38:23;;;;;;;0.70;0.70;;;12.80;99.90;;;13.61;100.00;-21051.78;4992168;28;20453;-74
2021/06/25 02:40:50;;;;;;;0.77;0.70;;;12.90;99.90;;;13.61;100.00;-21051.91;4991664;28;20448;-73
2021/06/25 02:43:19;;;;;;;0.70;0.60;;;12.80;99.90;;;13.56;100.00;-21050.41;4991804;28;20442;-73
2021/06/25 02:45:47;;;;;;;0.70;0.70;;;12.80;99.90;;;13.57;100.00;-21050.69;4992801;28;20496;-74
2021/06/25 02:48:15;;;;;;;0.70;0.70;;;12.80;99.90;;;13.50;100.00;-21049.03;4992916;28;20562;-74
2021/06/25 02:50:43;;;;;;;0.70;0.70;;;12.70;99.90;;;13.45;100.00;-21047.66;4991323;28;20454;-73
2021/06/25 02:53:10;;;;;;;0.70;0.70;;;12.70;99.90;;;13.45;100.00;-21047.50;4992932;28;20504;-74
2021/06/25 02:55:50;;;;;;;0.77;0.70;;;12.70;99.90;;;13.39;100.00;-21046.00;4991449;28;20446;-74
2021/06/25 02:58:20;;;;;;;0.70;0.60;;;12.60;99.90;;;13.52;100.00;-21049.56;4990833;28;20442;-73
2021/06/25 03:00:49;;;;;;;0.70;0.70;;;12.60;99.90;;;13.59;100.00;-21051.22;4992292;28;20453;-73
2021/06/25 03:03:17;;;;;;;0.80;0.73;;;12.60;99.90;;;13.64;100.00;-21052.63;4992227;28;20432;-73
2021/06/25 03:05:46;;;;;;;0.70;0.70;;;12.60;99.90;;;13.75;100.00;-21055.63;4992067;28;20525;-73
2021/06/25 03:08:14;;;;;;;0.73;0.70;;;12.70;99.90;;;13.87;100.00;-21058.94;4992636;28;20477;-74
2021/06/25 03:10:42;;;;;;;0.70;0.70;;;12.80;99.90;;;13.96;100.00;-21061.44;4992714;28;20469;-74
2021/06/25 03:13:10;;;;;;;0.70;0.70;;;12.80;99.90;;;14.05;100.00;-21063.63;4988847;28;20465;-73
2021/06/25 03:15:40;;;;;;;0.70;0.63;;;12.90;99.90;;;14.12;100.00;-21065.56;4989649;28;20459;-73
2021/06/25 03:18:10;;;;;;;0.70;0.70;;;13.00;99.90;;;14.10;100.00;-21065.16;4992824;28;20430;-74
2021/06/25 03:20:38;;;;;;;0.70;0.70;;;13.00;99.90;;;14.05;100.00;-21063.63;4991836;28;20438;-74
2021/06/25 03:23:06;;;;;;;0.70;0.60;;;13.00;99.90;;;13.94;100.00;-21060.88;4992382;28;20558;-73
2021/06/25 03:25:34;;;;;;;0.70;0.60;;;13.00;99.90;;;13.91;100.00;-21060.03;4992606;28;20910;-74
2021/06/25 03:28:02;;;;;;;0.80;0.80;;;12.90;99.90;;;13.80;100.00;-21057.03;4992233;28;20548;-74
2021/06/25 03:30:31;;;;;;;0.73;0.70;;;12.80;99.90;;;13.71;100.00;-21054.53;4991201;28;20976;-74
2021/06/25 03:33:00;;;;;;;0.80;0.80;;;12.80;99.90;;;13.60;100.00;-21051.66;4992266;28;20420;-73
2021/06/25 03:35:28;;;;;;;0.80;0.80;;;12.70;99.90;;;13.62;100.00;-21052.06;4990653;28;20437;-73
2021/06/25 03:37:56;;;;;;;0.80;0.73;;;12.70;99.90;;;13.65;100.00;-21052.88;4991721;28;20463;-74
2021/06/25 03:40:27;;;;;;;1.27;1.10;;;12.60;99.90;;;13.59;100.00;-21051.38;4991628;28;20448;-73
2021/06/25 03:42:55;;;;;;;0.80;0.80;;;12.60;99.90;;;13.58;100.00;-21050.97;4988141;28;20443;-73
2021/06/25 03:45:23;;;;;;;0.70;0.70;;;12.60;99.90;;;13.61;100.00;-21051.91;4991967;28;20471;-73
2021/06/25 03:47:51;;;;;;;0.70;0.70;;;12.60;99.90;;;13.67;100.00;-21053.44;4982465;28;20465;-73
2021/06/25 03:50:20;;;;;;;0.90;0.90;;;12.60;99.90;;;13.65;100.00;-21052.88;4990273;28;20438;-73
2021/06/25 03:52:48;;;;;;;0.70;0.70;;;12.60;99.90;;;13.64;100.00;-21052.75;4989968;28;21026;-73
2021/06/25 03:55:15;;;;;;;0.70;0.63;;;12.60;99.90;;;13.80;100.00;-21057.03;4990905;28;20445;-73
2021/06/25 03:57:44;;;;;;;0.70;0.70;;;12.70;99.90;;;13.99;100.00;-21062.13;4992273;28;20530;-73
2021/06/25 04:00:14;;;;;;;0.70;0.70;;;12.80;99.90;;;14.10;100.00;-21065.00;4990551;28;20445;-73
2021/06/25 04:02:43;;;;;;;0.80;0.80;;;12.90;99.90;;;14.12;100.00;-21065.56;4992665;28;20780;-73
2021/06/25 04:05:11;;;;;;;0.70;0.70;;;13.00;99.90;;;14.17;100.00;-21066.94;4992254;28;20462;-73
2021/06/25 04:07:42;;;;;;;0.70;0.70;;;13.10;99.90;;;14.06;100.00;-21063.91;4992047;28;20963;-73
2021/06/25 04:10:12;;;;;;;0.80;0.80;;;13.10;99.90;;;14.21;100.00;-21068.03;4990698;28;20482;-73
2021/06/25 04:12:41;;;;;;;0.70;0.60;;;13.10;99.90;;;14.27;100.00;-21069.81;4990023;28;20436;-73
2021/06/25 04:15:09;;;;;;;0.80;0.70;;;13.20;99.90;;;14.32;100.00;-21071.06;4989222;28;20496;-73
2021/06/25 04:17:37;;;;;;;0.80;0.70;;;13.30;99.90;;;14.67;100.00;-21080.44;4991424;28;20514;-73
2021/06/25 04:20:06;;;;;;;0.70;0.70;;;13.40;99.90;;;14.78;100.00;-21083.47;4994308;28;20437;-74
2021/06/25 04:22:34;;;;;;;0.73;0.70;;;13.50;99.90;;;14.82;100.00;-21084.41;4994223;28;20444;-73
2021/06/25 04:25:04;;;;;;;0.80;0.70;;;13.60;99.90;;;14.92;100.00;-21087.19;4995605;28;20445;-73
2021/06/25 04:27:32;;;;;;;0.80;0.70;;;13.80;99.90;;;15.02;100.00;-21089.78;4987522;28;20460;-74
2021/06/25 04:29:59;;;;;;;0.70;0.60;;;13.90;99.90;;;15.17;100.00;-21093.91;4994130;28;20440;-73
2021/06/25 04:32:28;;;;;;;0.70;0.70;;;14.00;99.90;;;15.31;100.00;-21097.75;4990666;28;20965;-73
2021/06/25 04:34:56;;;;;;;0.70;0.70;;;14.10;99.90;;;15.22;100.00;-21095.28;4990488;28;20492;-74
2021/06/25 04:37:23;;;;;;;0.70;0.70;;;14.20;99.90;;;15.39;100.00;-21099.81;4994056;28;20410;-74
2021/06/25 04:39:50;;;;;;;0.73;0.70;;;14.30;99.90;;;15.48;100.00;-21102.16;4995849;28;20431;-74
2021/06/25 04:42:22;;;;;;;0.80;0.80;;;14.30;99.90;;;15.60;100.00;-21105.59;4994637;28;20997;-73
2021/06/25 04:44:49;;;;;;;0.80;0.80;;;14.40;99.90;;;15.72;100.00;-21108.75;4995441;28;20770;-73
2021/06/25 04:47:17;;;;;;;0.70;0.70;;;14.40;99.90;;;15.81;100.00;-21111.09;4995840;28;20457;-73
2021/06/25 04:49:45;;;;;;;0.70;0.70;;;14.50;99.90;;;15.83;100.00;-21111.78;4993691;28;20535;-73
2021/06/25 04:52:12;;;;;;;0.80;0.80;;;14.60;99.90;;;15.80;100.00;-21110.97;4992446;28;20452;-73
2021/06/25 04:54:40;;;;;;;1.13;1.03;;;14.60;99.90;;;15.85;100.00;-21112.34;4995156;28;20545;-73
2021/06/25 04:57:08;;;;;;;0.90;0.90;;;14.60;99.90;;;15.83;100.00;-21111.78;4995022;28;20445;-74
2021/06/25 04:59:37;;;;;;;0.70;0.70;;;14.60;99.90;;;15.72;100.00;-21108.75;4996139;28;20470;-74
2021/06/25 05:02:06;;;;;;;0.70;0.60;;;14.70;99.90;;;15.70;100.00;-21108.22;4995408;28;20441;-74
2021/06/25 05:04:34;;;;;;;0.70;0.70;;;14.70;99.90;;;15.74;100.00;-21109.31;4995375;28;20470;-74
2021/06/25 05:07:03;;;;;;;0.70;0.70;;;14.70;99.90;;;15.66;100.00;-21107.13;4994854;28;20515;-73
2021/06/25 05:09:31;;;;;;;0.80;0.80;;;14.70;99.90;;;15.73;100.00;-21109.03;4985778;28;20460;-74
2021/06/25 05:11:58;;;;;;;0.70;0.67;;;14.70;99.90;;;15.80;100.00;-21110.84;4991669;28;20473;-74
2021/06/25 05:14:26;;;;;;;0.80;0.80;;;14.80;99.90;;;15.87;100.00;-21112.88;4994876;28;20868;-74
2021/06/25 05:16:55;;;;;;;0.70;0.67;;;14.80;99.90;;;15.85;100.00;-21112.34;4995375;28;20442;-74
2021/06/25 05:19:22;;;;;;;0.80;0.70;;;14.90;99.90;;;16.17;100.00;-21121.00;4995473;28;20425;-73
2021/06/25 05:21:50;;;;;;;0.70;0.70;;;15.10;99.90;;;16.40;100.00;-21127.03;4993992;28;20433;-74
2021/06/25 05:24:18;;;;;;;1.00;0.90;;;15.20;99.90;;;16.41;100.00;-21127.44;4995254;28;20453;-74
2021/06/25 05:26:45;;;;;;;0.80;0.70;;;15.40;99.90;;;16.66;100.00;-21134.19;4994836;28;20919;-73
2021/06/25 05:29:13;;;;;;;0.70;0.60;;;15.60;99.90;;;16.75;100.00;-21136.50;4991095;28;21030;-74
2021/06/25 05:31:40;;;;;;;0.80;0.70;;;15.70;99.90;;;16.75;100.00;-21136.50;4992325;28;20962;-74
2021/06/25 05:34:10;;;;;;;1.53;1.43;;;15.80;99.90;;;16.65;100.00;-21133.75;4995174;28;20479;-74
2021/06/25 05:36:37;;;;;;;0.77;0.70;;;15.80;99.90;;;16.59;100.00;-21132.13;4993538;28;20430;-73
2021/06/25 05:39:05;;;;;;;0.70;0.60;;;15.80;99.90;;;16.63;100.00;-21133.22;5010074;28;20461;-73
2021/06/25 05:41:32;;;;;;;1.20;1.10;;;15.80;99.90;;;16.62;100.00;-21132.94;4993531;28;20444;-74
2021/06/25 05:44:00;;;;;;;0.70;0.70;;;15.90;99.90;;;16.62;100.00;-21132.94;4994709;28;20972;-73
2021/06/25 05:46:27;;;;;;;0.70;0.63;;;15.90;99.90;;;16.74;100.00;-21136.25;4992171;28;20858;-73
2021/06/25 05:48:55;;;;;;;0.70;0.70;;;16.00;99.90;;;16.99;100.00;-21142.81;4991627;28;20470;-74
2021/06/25 05:51:26;;;;;;;0.70;0.70;;;16.20;99.90;;;16.97;100.00;-21142.28;4994505;28;20937;-74
2021/06/25 05:53:53;;;;;;;0.70;0.70;;;16.30;99.90;;;17.03;100.00;-21143.91;4993649;28;20449;-74
2021/06/25 05:56:21;;;;;;;0.70;0.67;;;16.30;99.90;;;17.23;100.00;-21149.41;4994668;28;20431;-74
2021/06/25 05:58:50;;;;;;;0.80;0.70;;;16.50;99.90;;;17.30;100.00;-21151.19;4994573;28;20436;-74
2021/06/25 06:01:17;;;;;;;0.80;0.73;;;16.50;99.90;;;17.58;100.00;-21158.88;4994232;28;20903;-74
2021/06/25 06:03:45;;;;;;;1.27;1.17;;;16.60;99.90;;;17.69;100.00;-21161.63;4994419;28;20530;-74
2021/06/25 06:06:14;;;;;;;1.43;1.33;;;16.80;99.90;;;17.75;100.00;-21163.41;4991080;28;20477;-73
2021/06/25 06:08:43;;;;;;;0.70;0.60;;;16.90;99.90;;;17.91;100.00;-21167.66;4992350;28;20472;-74
2021/06/25 06:11:11;;;;;;;1.20;1.10;;;17.00;99.90;;;18.06;100.00;-21171.63;4992956;28;20456;-74
2021/06/25 06:13:38;;;;;;;0.80;0.80;;;17.20;99.90;;;18.10;100.00;-21172.84;4994146;28;20444;-74
2021/06/25 06:16:08;;;;;;;0.70;0.60;;;17.30;99.90;;;18.24;100.00;-21176.56;4993400;28;20552;-74
2021/06/25 06:21:23;;;;;;;0.70;0.60;;;17.50;99.90;;;18.29;100.00;-21177.91;4986925;28;20453;-74
2021/06/25 06:34:44;;;;;;;0.70;0.70;;;17.80;99.90;;;18.16;100.00;-21174.34;4994041;28;20906;-74
2021/06/25 06:37:17;;;;;;;0.70;0.60;;;17.70;99.90;;;18.25;100.00;-21176.81;4993459;28;20425;-74
2021/06/25 06:39:46;;;;;;;0.70;0.70;;;17.70;99.90;;;18.59;100.00;-21185.84;4993675;28;21029;-74
2021/06/25 06:42:14;;;;;;;0.70;0.60;;;17.80;99.90;;;18.76;100.00;-21190.53;4990038;28;20861;-74
2021/06/25 06:44:41;;;;;;;1.07;0.97;;;17.90;99.90;;;18.83;100.00;-21192.44;4991703;28;20843;-74
2021/06/25 06:47:09;;;;;;;1.10;1.00;;;18.00;99.90;;;18.91;100.00;-21194.34;4992230;28;20435;-73
2021/06/25 06:49:37;;;;;;;0.70;0.60;;;18.10;99.90;;;18.85;100.00;-21192.72;4976105;28;20461;-73
2021/06/25 06:52:06;;;;;;;0.70;0.63;;;18.10;99.90;;;18.88;100.00;-21193.53;4993240;28;20430;-74
2021/06/25 06:54:33;;;;;;;0.80;0.80;;;18.20;99.90;;;19.13;100.00;-21200.22;4992169;28;20476;-74
2021/06/25 06:57:03;;;;;;;0.80;0.70;;;18.30;99.90;;;19.35;100.00;-21206.25;4992211;28;20794;-74
2021/06/25 06:59:31;;;;;;;0.70;0.60;;;18.40;99.90;;;19.08;100.00;-21198.88;4991589;28;20882;-74
2021/06/25 07:01:58;;;;;;;0.70;0.60;;;18.60;99.90;;;19.20;100.00;-21202.16;4990459;28;20449;-74
2021/06/25 07:04:35;;;;;;;0.80;0.70;;;18.60;99.90;;;19.52;100.00;-21210.75;4986966;28;20922;-74
2021/06/25 07:07:05;;;;;;;0.80;0.80;;;18.80;99.90;;;19.73;100.00;-21216.38;4990276;28;20466;-73
2021/06/25 07:09:32;;;;;;;0.70;0.63;;;18.90;99.90;;;19.79;100.00;-21218.16;4993196;28;20858;-74
2021/06/25 07:12:00;;;;;;;0.80;0.73;;;19.00;99.90;;;19.70;100.00;-21215.56;4991950;28;20442;-75
2021/06/25 07:14:28;;;;;;;0.80;0.70;;;19.20;99.90;;;19.77;100.00;-21217.59;4993239;28;20895;-74
2021/06/25 07:16:56;;;;;;;0.80;0.70;;;19.20;99.90;;;19.70;100.00;-21215.69;4992950;28;20419;-74
2021/06/25 07:19:24;;;;;;;0.80;0.80;;;19.40;99.90;;;19.92;100.00;-21221.44;4990576;28;20915;-74
2021/06/25 07:21:51;;;;;;;0.80;0.60;;;19.40;99.90;;;19.89;100.00;-21220.75;4991998;28;20903;-73
2021/06/25 07:24:19;;;;;;;1.13;1.03;;;19.50;99.90;;;20.32;100.00;-21232.09;4990858;28;20510;-73
2021/06/25 07:26:46;;;;;;;1.00;0.90;;;19.50;99.90;;;20.28;100.00;-21231.25;4990007;28;20398;-74
2021/06/25 07:29:14;;;;;;;0.77;0.63;;;19.60;99.90;;;20.19;100.00;-21228.66;4992889;28;20860;-73
2021/06/25 07:31:43;;;;;;;0.73;0.67;;;19.70;99.90;;;20.78;100.00;-21244.38;4991707;28;20448;-74
2021/06/25 07:34:10;;;;;;;0.80;0.70;;;19.80;99.90;;;20.84;100.00;-21246.00;4992979;28;20951;-74
2021/06/25 07:36:39;;;;;;;0.70;0.60;;;20.00;99.90;;;21.23;100.00;-21256.66;4991726;28;20409;-74
2021/06/25 07:39:08;;;;;;;0.70;0.63;;;20.20;99.90;;;20.83;100.00;-21245.75;4990694;28;20501;-74
2021/06/25 07:41:36;;;;;;;0.80;0.70;;;20.30;99.90;;;20.77;100.00;-21244.09;4991242;28;20385;-74
2021/06/25 07:44:05;;;;;;;1.07;0.97;;;20.30;99.90;;;20.58;100.00;-21239.19;4991434;28;20857;-74
2021/06/25 07:46:33;;;;;;;0.80;0.70;;;20.40;99.90;;;20.61;100.00;-21239.88;4991445;28;20464;-74
2021/06/25 07:49:03;;;;;;;0.70;0.60;;;20.30;99.90;;;21.17;100.00;-21254.88;4975372;28;20964;-74
2021/06/25 07:51:33;;;;;;;1.10;1.00;;;20.40;99.90;;;21.38;100.00;-21260.47;4992926;28;20394;-74
2021/06/25 07:54:01;;;;;;;0.80;0.60;;;20.60;99.90;;;21.19;100.00;-21255.56;4991236;28;20532;-74
2021/06/25 07:56:28;;;;;;;0.80;0.70;;;20.80;99.90;;;21.30;100.00;-21258.44;4990747;28;20438;-74
2021/06/25 07:58:57;;;;;;;0.80;0.70;;;21.00;99.90;;;21.48;100.00;-21263.19;4990973;28;20446;-74
2021/06/25 08:01:25;;;;;;;0.80;0.60;;;21.10;99.90;;;21.46;100.00;-21262.78;4989395;28;20509;-74
2021/06/25 08:03:54;;;;;;;0.80;0.73;;;21.20;99.90;;;21.41;100.00;-21261.28;4991918;28;20425;-73
2021/06/25 08:06:23;;;;;;;0.70;0.60;;;21.30;99.90;;;21.60;100.00;-21266.34;4992079;28;20432;-74
2021/06/25 08:08:51;;;;;;;0.77;0.60;;;21.40;99.90;;;21.43;100.00;-21261.84;4990479;28;20493;-74
2021/06/25 08:11:19;;;;;;;1.33;1.07;;;21.50;99.90;;;21.97;100.00;-21276.28;4991140;28;20423;-74
2021/06/25 08:13:47;;;;;;;0.80;0.70;;;21.60;99.90;;;21.86;100.00;-21273.44;4974525;28;20847;-74
2021/06/25 08:16:15;;;;;;;1.00;0.80;;;21.70;99.90;;;21.99;100.00;-21276.69;4989453;28;20415;-73
2021/06/25 08:18:42;;;;;;;0.70;0.60;;;21.90;99.90;;;22.53;100.00;-21291.28;4991453;28;20462;-74
2021/06/25 08:21:10;;;;;;;0.80;0.70;;;22.00;99.90;;;22.64;100.00;-21294.28;4990504;28;20431;-74
2021/06/25 08:23:39;;;;;;;0.73;0.60;;;22.20;99.90;;;22.41;100.00;-21288.00;4991281;28;20474;-73
2021/06/25 08:26:06;;;;;;;0.73;0.60;;;22.20;99.90;;;22.53;100.00;-21291.28;4991611;28;20431;-74
2021/06/25 08:28:33;;;;;;;0.80;0.70;;;22.10;99.90;;;21.66;100.00;-21268.13;4991972;28;20949;-74
2021/06/25 08:31:01;;;;;;;0.80;0.60;;;21.90;97.60;;;22.27;100.00;-21284.19;4992199;28;20431;-74
2021/06/25 08:33:29;;;;;;;0.70;0.60;;;21.80;95.90;;;22.99;100.00;-21303.53;4991218;28;20493;-74
2021/06/25 08:35:57;;;;;;;0.80;0.70;;;22.10;94.90;;;23.45;100.00;-21315.75;4990871;28;20465;-74
2021/06/25 08:38:25;;;;;;;0.80;0.60;;;22.60;93.40;;;23.75;100.00;-21323.66;4989643;28;20451;-73
2021/06/25 08:40:57;;;;;;;0.70;0.60;;;23.00;89.00;;;22.67;100.00;-21295.09;4989538;28;20437;-74
2021/06/25 08:43:25;;;;;;;0.70;0.60;;;22.90;77.30;;;22.31;100.00;-21285.41;4991985;28;20839;-73
2021/06/25 08:45:53;;;;;;;0.70;0.70;;;22.50;75.00;;;22.09;100.00;-21279.56;4990898;28;20474;-73
2021/06/25 08:48:25;;;;;;;0.80;0.70;;;22.10;69.50;;;21.49;100.00;-21263.47;4992225;28;20430;-75
2021/06/25 08:50:58;;;;;;;0.70;0.60;;;21.80;66.60;;;21.38;100.00;-21260.47;4990678;28;20554;-73
2021/06/25 08:53:26;;;;;;;0.70;0.60;;;21.60;67.10;;;22.48;100.00;-21289.91;4990699;28;20451;-73
2021/06/25 08:55:56;;;;;;;0.73;0.60;;;21.90;67.00;;;23.44;100.00;-21315.50;4989489;28;20431;-75
2021/06/25 08:58:24;;;;;;;0.70;0.60;;;22.60;65.80;;;24.72;100.00;-21349.59;4990406;28;20431;-74
2021/06/25 09:00:52;;;;;;;0.70;0.50;;;23.40;64.50;;;24.85;100.00;-21352.97;4986886;28;20553;-73
2021/06/25 09:03:23;;;;;;;0.90;0.70;;;24.20;60.90;;;24.88;100.00;-21353.78;4991856;28;20462;-74
2021/06/25 09:05:51;;;;;;;0.70;0.60;;;24.80;52.80;;;24.33;100.00;-21339.13;4994496;28;20411;-75
2021/06/25 09:08:27;;;;;;;0.70;0.60;;;25.00;45.90;;;24.96;100.00;-21355.97;4993953;28;20446;-74
2021/06/25 09:11:00;;;;;;;0.70;0.60;;;25.10;43.50;;;25.72;100.00;-21376.03;4994119;28;20466;-73
2021/06/25 09:13:34;;;;;;;0.70;0.60;;;25.30;43.00;;;25.79;100.00;-21377.94;4993226;28;20527;-74
2021/06/25 09:16:02;;;;;;;0.70;0.50;;;25.80;44.80;;;25.81;100.00;-21378.47;4993731;28;20783;-74
2021/06/25 09:18:29;;;;;;;0.70;0.50;;;26.10;36.60;;;25.49;100.00;-21370.06;4995017;28;20415;-74
2021/06/25 09:20:58;;;;;;;0.70;0.60;;;26.10;36.20;;;24.73;100.00;-21349.72;4994604;28;20427;-74
2021/06/25 09:23:36;;;;;;;0.70;0.50;;;25.50;34.20;;;24.81;100.00;-21352.03;4994985;28;20513;-74
2021/06/25 09:26:31;;;;;;;0.70;0.50;;;25.20;39.60;;;26.44;100.00;-21395.25;4995191;28;20450;-73
2021/06/25 09:29:13;;;;;;;0.70;0.50;;;25.50;40.30;;;26.89;100.00;-21407.03;4995182;28;20450;-73
2021/06/25 09:31:41;;;;;;;0.70;0.50;;;26.60;32.60;;;26.57;100.00;-21398.50;4993997;28;20430;-72
2021/06/25 09:34:10;;;;;;;0.70;0.50;;;27.00;33.00;;;27.68;100.00;-21427.97;4991720;28;20407;-72
2021/06/25 09:36:39;;;;;;;0.70;0.50;;;27.50;29.20;;;26.54;100.00;-21397.84;4993807;28;20434;-73
2021/06/25 09:39:10;;;;;;;0.70;0.50;;;27.00;29.00;;;27.24;100.00;-21416.38;4993166;28;20471;-74
2021/06/25 09:41:42;;;;;;;0.70;0.50;;;26.90;27.60;;;26.21;100.00;-21389.03;4993637;28;20534;-74
2021/06/25 09:44:15;;;;;;;0.70;0.50;;;27.20;24.10;;;27.24;100.00;-21416.38;4994893;28;20558;-73
2021/06/25 09:46:45;;;;;;;0.80;0.60;;;27.50;24.30;;;26.56;100.00;-21398.25;4993665;28;20506;-74
2021/06/25 09:49:15;;;;;;;0.70;0.50;;;27.00;23.80;;;27.04;100.00;-21410.97;4993572;28;20459;-72
2021/06/25 09:51:55;;;;;;;0.70;0.50;;;26.90;28.50;;;27.27;100.00;-21417.19;4993083;28;20427;-74
2021/06/25 09:54:23;;;;;;;0.70;0.60;;;27.40;26.60;;;28.95;100.00;-21461.47;4993093;28;20450;-74
2021/06/25 10:02:24;;;;;;;0.70;0.50;;;29.30;20.10;;;26.80;100.00;-21404.72;4994044;28;20478;-72
2021/06/25 10:04:55;;;;;;;0.70;0.50;;;28.30;19.80;;;26.63;100.00;-21400.13;4994637;28;20422;-73
2021/06/25 10:07:25;;;;;;;0.80;0.60;;;27.40;19.10;;;25.72;100.00;-21376.03;4993451;28;20407;-74
2021/06/25 10:09:55;;;;;;;0.70;0.60;;;26.30;23.60;;;25.71;100.00;-21375.91;4993269;28;20466;-74
2021/06/25 10:12:25;;;;;;;0.70;0.50;;;25.80;22.70;;;25.89;100.00;-21380.50;4990617;28;20427;-74
2021/06/25 10:14:54;;;;;;;0.70;0.50;;;25.70;27.90;;;27.54;100.00;-21424.19;4994425;28;20525;-74
2021/06/25 10:17:27;;;;;;;0.70;0.50;;;26.50;25.10;;;26.87;100.00;-21406.63;4993951;28;20442;-74
2021/06/25 10:20:04;;;;;;;0.70;0.50;;;27.30;22.80;;;27.34;100.00;-21419.06;4992689;28;20425;-74
2021/06/25 10:22:33;;;;;;;0.70;0.50;;;27.90;22.90;;;28.48;100.00;-21449.06;4993355;28;20421;-75
2021/06/25 10:25:04;;;;;;;0.70;0.50;;;28.70;22.20;;;30.43;100.00;-21500.66;4992142;28;21030;-74
2021/06/25 10:27:35;;;;;;;1.00;0.90;;;29.50;15.90;;;29.41;100.00;-21473.59;4992949;28;20411;-74
2021/06/25 10:30:05;;;;;;;0.70;0.50;;;29.70;15.80;;;29.59;100.00;-21478.44;4990898;28;20455;-74
2021/06/25 10:32:36;;;;;;;0.70;0.50;;;29.90;14.60;;;30.29;100.00;-21497.00;4992071;28;20430;-74
2021/06/25 10:35:11;;;;;;;0.70;0.50;;;30.50;16.90;;;29.78;100.00;-21483.56;4993839;28;20415;-73